Ana Sayfa
METAR-TAF:

METAR-TAF

Havaalanları :

El Paso, Teksas, Amerika Birleşik Devletleri

Enlem: 31-48-40N, Boylam: 106-22-33W, yükseklik: 1206 m

Güncel hava durumu gözlemi

Rapor saat 17:51 UTC de 12 dakika önce yapıldı.
Rüzgar güneydan 6 kt
Sıcaklık 27°C
Nem 21%
Basınç 1022 hPa
Görüş mesafesi: 12.9 km
Açık gökyüzü

METAR: KELP 221751Z 18006KT 8SM CLR 27/03 A3017 RMK AO2 SLP144 T02720028 10278 20144 58007

Saat: 13:03 (18:03 UTC)

Tahmin

Rapor saat 17:28 UTC de 35 dakika önce yapıldı.
Ayın 22'si saat 18 UTC'den ayın 23'si saat 18 UTC'ye kadar geçerli Tahmin
Rüzgar güneybatıdan 6 kt
Görüş mesafesi: 10 km
11000 ft yükseklikte az bulutlu

TAF: KELP 221728Z 2218/2318 22006KT P6SM FEW110

4.000'den fazla havaalanı için hava durumu gözlemleri ve tahminleri (METAR ve TAF raporları).

Kullanılabilir istasyonlar harita üzerinde sarı ve kırmızı noktalarla gösterilir.

İstasyonun adını görmek için fareyi noktanın üzerinde gezdirin.

Sonrasında hava gözlem ve tahminlerini görmek için tıklayın.

Haritayı değiştirmek için: yaklaştırmak için siyah artı işaretli yeşil düğmeye ve uzaklaştırmak için de eksi işaretli düğmeye hızla tıklayın; bitişik haritalar için yeşil okları kullanın.


METAR-TAF: